X  Close Metar Aviation Weather Data     KDZJ Blairsville Airport
Temperature
48°F Temperature
48°F Dewpoint
100% Humidity



Wind
3 MPH
5 KM/H
1 M/S
3 KTS



150°
SSE
Current Conditions

Clear Clear
Pressure 1020.32 (hPa) - 30.13 (inHg)
Visibility 10 (mile) - 16.1 (km)
Airport
Airport-code KDZJ

Location: Blairsville Airport
Distance: 18 (mi)

Metar:
KDZJ 181135Z AUTO 15003KT 10SM CLR 09/09 A3013 RMK AO2 T00900089

Time: 05-18-2022 07:35 EDT